Terminal Aerodrome Forecast
Issued by NWS

Home | Current Version | Previous Version | Text Only | Print | Product List | Glossary On
Versions: 1 2 3 4 5 6 7 8 9 10 11 12 13
000
FTUS45 KRIW 281700
TAFBPI
TAF
KBPI 281722Z 2818/2918 29006KT P6SM SKC
     FM281900 31012G18KT P6SM FEW090
     FM290200 32008KT P6SM SCT100
     FM290600 VRB04KT P6SM BKN110=

USA.gov is the U.S. government's official web portal to all federal, state and local government web resources and services.